createdAt,value
2022-11-16T00:00:06.536Z,96045.97
2022-11-16T00:02:34.375Z,96039.41
2022-11-16T00:05:01.481Z,96041.00
2022-11-16T00:07:28.537Z,96046.88
2022-11-16T00:09:55.634Z,96044.28
2022-11-16T00:12:22.538Z,96041.59
2022-11-16T00:14:49.548Z,96047.59
2022-11-16T00:17:18.266Z,96040.59
2022-11-16T00:19:47.361Z,96041.19
2022-11-16T00:22:14.346Z,96032.31
2022-11-16T00:24:41.333Z,96026.06
2022-11-16T00:27:08.273Z,96038.00
2022-11-16T00:29:35.229Z,96043.78
2022-11-16T00:32:02.434Z,96037.78
2022-11-16T00:34:31.240Z,96034.28
2022-11-16T00:36:58.406Z,96024.03
2022-11-16T00:39:25.416Z,96028.44
2022-11-16T00:41:52.487Z,96027.31
2022-11-16T00:44:19.704Z,96019.56
2022-11-16T00:46:46.899Z,96031.47
2022-11-16T00:49:13.982Z,96023.28
2022-11-16T00:51:42.710Z,96035.91
2022-11-16T00:54:09.791Z,96027.31
2022-11-16T00:56:38.172Z,96013.47
2022-11-16T00:59:05.305Z,96017.78
2022-11-16T01:01:32.365Z,96018.75
2022-11-16T01:04:00.107Z,96019.34
2022-11-16T01:06:27.096Z,96006.41
2022-11-16T01:08:55.985Z,96001.34
2022-11-16T01:11:23.065Z,96009.31
2022-11-16T01:13:50.918Z,95996.25
2022-11-16T01:16:19.480Z,95985.09
2022-11-16T01:18:48.971Z,95979.81
2022-11-16T01:21:16.335Z,95976.47
2022-11-16T01:23:43.532Z,95975.84
2022-11-16T01:26:12.088Z,95970.06
2022-11-16T01:28:39.540Z,95975.66
2022-11-16T01:31:07.110Z,95963.75
2022-11-16T01:33:34.243Z,95975.97
2022-11-16T01:36:01.218Z,95972.44
2022-11-16T01:38:30.031Z,95967.56
2022-11-16T01:40:57.672Z,95963.44
2022-11-16T01:43:26.886Z,95956.59
2022-11-16T01:45:54.429Z,95955.03
2022-11-16T01:48:27.590Z,95947.28
2022-11-16T01:50:58.100Z,95950.72
2022-11-16T01:53:25.946Z,95946.44
2022-11-16T01:55:53.419Z,95943.25
2022-11-16T01:58:24.726Z,95938.47
2022-11-16T02:00:53.333Z,95931.44
2022-11-16T02:03:21.804Z,95932.19
2022-11-16T02:06:05.905Z,95924.63
2022-11-16T02:08:49.118Z,95922.34
2022-11-16T02:11:31.694Z,95922.34
2022-11-16T02:14:11.993Z,95915.00
2022-11-16T02:16:49.931Z,95916.44
2022-11-16T02:19:50.586Z,95905.78
2022-11-16T02:22:27.356Z,95910.13
2022-11-16T02:25:03.538Z,95908.38
2022-11-16T02:27:59.760Z,95898.22
2022-11-16T02:30:28.644Z,95900.31
2022-11-16T02:33:02.866Z,95897.06
2022-11-16T02:35:34.899Z,95891.81
2022-11-16T02:38:06.679Z,95890.88
2022-11-16T02:40:37.929Z,95894.19
2022-11-16T02:43:08.968Z,95889.84
2022-11-16T02:45:40.636Z,95878.56
2022-11-16T02:48:14.590Z,95877.53
2022-11-16T02:50:43.688Z,95875.25
2022-11-16T02:53:10.874Z,95876.91
2022-11-16T02:55:38.749Z,95869.97
2022-11-16T02:58:07.497Z,95870.06
2022-11-16T03:00:41.659Z,95864.06
2022-11-16T03:03:19.039Z,95854.53
2022-11-16T03:05:51.187Z,95861.69
2022-11-16T03:08:25.605Z,95856.53
2022-11-16T03:10:55.836Z,95863.38
2022-11-16T03:13:26.261Z,95866.66
2022-11-16T03:15:56.459Z,95856.53
2022-11-16T03:18:26.748Z,95872.06
2022-11-16T03:21:01.165Z,95878.88
2022-11-16T03:23:28.224Z,95877.13
2022-11-16T03:25:57.613Z,95874.44
2022-11-16T03:28:31.563Z,95878.88
2022-11-16T03:31:07.303Z,95867.47
2022-11-16T03:33:40.516Z,95876.81
2022-11-16T03:36:14.379Z,95861.50
2022-11-16T03:38:42.940Z,95862.22
2022-11-16T03:41:12.830Z,95859.50
2022-11-16T03:43:42.908Z,95852.59
2022-11-16T03:46:12.330Z,95859.19
2022-11-16T03:48:40.480Z,95845.44
2022-11-16T03:51:10.888Z,95840.78
2022-11-16T03:53:38.097Z,95834.88
2022-11-16T03:56:05.442Z,95838.28
2022-11-16T03:58:32.617Z,95832.28
2022-11-16T04:00:59.883Z,95829.50
2022-11-16T04:03:28.384Z,95829.72
2022-11-16T04:05:55.460Z,95835.00
2022-11-16T04:08:22.562Z,95831.34
2022-11-16T04:10:49.906Z,95815.81
2022-11-16T04:13:25.102Z,95813.97
2022-11-16T04:15:52.087Z,95812.19
2022-11-16T04:18:19.143Z,95824.44
2022-11-16T04:20:47.863Z,95812.63
2022-11-16T04:23:16.412Z,95812.22
2022-11-16T04:25:44.815Z,95812.53
2022-11-16T04:28:12.148Z,95810.88
2022-11-16T04:30:40.523Z,95808.50
2022-11-16T04:33:07.746Z,95809.16
2022-11-16T04:35:34.681Z,95808.28
2022-11-16T04:38:03.084Z,95808.50
2022-11-16T04:40:30.075Z,95804.19
2022-11-16T04:42:58.459Z,95813.47
2022-11-16T04:45:27.044Z,95787.50
2022-11-16T04:47:54.319Z,95789.16
2022-11-16T04:50:22.320Z,95798.78
2022-11-16T04:52:49.358Z,95801.38
2022-11-16T04:55:18.002Z,95788.34
2022-11-16T04:57:45.108Z,95783.88
2022-11-16T05:00:13.363Z,95774.44
2022-11-16T05:02:40.499Z,95778.91
2022-11-16T05:05:08.556Z,95775.41
2022-11-16T05:07:36.227Z,95765.16
2022-11-16T05:10:04.174Z,95778.81
2022-11-16T05:12:33.354Z,95781.91
2022-11-16T05:15:00.887Z,95781.91
2022-11-16T05:17:28.777Z,95783.88
2022-11-16T05:19:55.943Z,95771.16
2022-11-16T05:22:23.309Z,95771.38
2022-11-16T05:24:50.474Z,95774.16
2022-11-16T05:27:19.758Z,95773.34
2022-11-16T05:29:48.239Z,95771.69
2022-11-16T05:32:15.377Z,95761.84
2022-11-16T05:34:42.697Z,95755.13
2022-11-16T05:37:09.718Z,95756.56
2022-11-16T05:39:37.655Z,95767.75
2022-11-16T05:42:05.474Z,95747.97
2022-11-16T05:44:32.498Z,95746.09
2022-11-16T05:47:01.333Z,95751.81
2022-11-16T05:49:28.418Z,95752.50
2022-11-16T05:51:55.437Z,95736.28
2022-11-16T05:54:24.203Z,95738.75
2022-11-16T05:56:51.826Z,95740.50
2022-11-16T05:59:21.039Z,95736.50
2022-11-16T06:01:48.197Z,95740.22
2022-11-16T06:06:58.153Z,95738.56
2022-11-16T06:09:25.219Z,95737.75
2022-11-16T06:11:52.204Z,95737.66
2022-11-16T06:14:19.172Z,95746.78
2022-11-16T06:16:46.888Z,95738.09
2022-11-16T06:19:13.878Z,95745.84
2022-11-16T06:21:42.248Z,95738.91
2022-11-16T06:24:09.436Z,95738.59
2022-11-16T06:26:36.738Z,95737.47
2022-11-16T06:29:04.439Z,95739.72
2022-11-16T06:31:31.906Z,95738.78
2022-11-16T06:33:58.848Z,95739.50
2022-11-16T06:36:26.567Z,95736.19
2022-11-16T06:38:54.936Z,95727.50
2022-11-16T06:41:22.135Z,95731.53
2022-11-16T06:43:49.094Z,95731.44
2022-11-16T06:46:16.061Z,95735.03
2022-11-16T06:48:43.155Z,95740.22
2022-11-16T06:51:10.120Z,95737.13
2022-11-16T06:53:37.144Z,95739.94
2022-11-16T06:56:06.563Z,95743.56
2022-11-16T06:58:33.941Z,95734.22
2022-11-16T07:01:06.549Z,95736.59
2022-11-16T07:03:33.517Z,95732.50
2022-11-16T07:06:04.793Z,95731.44
2022-11-16T07:08:32.138Z,95726.38
2022-11-16T07:11:04.275Z,95733.22
2022-11-16T07:13:33.353Z,95735.09
2022-11-16T07:16:04.805Z,95729.91
2022-11-16T07:18:33.941Z,95730.50
2022-11-16T07:21:05.932Z,95728.03
2022-11-16T07:23:33.034Z,95722.03
2022-11-16T07:26:00.586Z,95724.63
2022-11-16T07:28:28.485Z,95725.66
2022-11-16T07:31:01.604Z,95723.78
2022-11-16T07:33:28.779Z,95718.81
2022-11-16T07:36:00.603Z,95717.78
2022-11-16T07:38:27.557Z,95725.66
2022-11-16T07:40:54.495Z,95709.13
2022-11-16T07:43:21.386Z,95718.53
2022-11-16T07:45:48.366Z,95713.88
2022-11-16T07:48:16.765Z,95721.31
2022-11-16T07:50:43.735Z,95713.44
2022-11-16T07:53:10.714Z,95707.22
2022-11-16T07:55:37.645Z,95697.69
2022-11-16T07:58:04.644Z,95702.44
2022-11-16T08:00:31.860Z,95693.75
2022-11-16T08:02:59.047Z,95694.47
2022-11-16T08:05:27.526Z,95703.19
2022-11-16T08:07:54.507Z,95706.59
2022-11-16T08:10:21.726Z,95704.50
2022-11-16T08:12:49.008Z,95704.50
2022-11-16T08:15:16.086Z,95697.47
2022-11-16T08:17:43.117Z,95699.75
2022-11-16T08:20:10.738Z,95698.44
2022-11-16T08:22:39.624Z,95702.97
2022-11-16T08:25:08.016Z,95695.13
2022-11-16T08:27:35.393Z,95698.94
2022-11-16T08:30:02.724Z,95693.53
2022-11-16T08:32:29.710Z,95703.06
2022-11-16T08:34:57.224Z,95689.28
2022-11-16T08:37:24.694Z,95697.38
2022-11-16T08:39:53.571Z,95692.56
2022-11-16T08:42:20.744Z,95692.13
2022-11-16T08:44:47.722Z,95691.91
2022-11-16T08:47:14.658Z,95694.16
2022-11-16T08:49:45.234Z,95687.22
2022-11-16T08:52:16.276Z,95695.56
2022-11-16T08:54:43.368Z,95695.34
2022-11-16T08:57:11.908Z,95697.69
2022-11-16T08:59:39.056Z,95688.38
2022-11-16T09:02:06.329Z,95688.38
2022-11-16T09:04:37.012Z,95690.72
2022-11-16T09:07:04.549Z,95692.88
2022-11-16T09:09:31.689Z,95688.31
2022-11-16T09:11:59.014Z,95689.84
2022-11-16T09:14:27.552Z,95686.34
2022-11-16T09:16:54.656Z,95687.38
2022-11-16T09:19:21.632Z,95690.69
2022-11-16T09:21:48.651Z,95684.56
2022-11-16T09:24:15.597Z,95687.16
2022-11-16T09:26:42.761Z,95685.41
2022-11-16T09:29:13.709Z,95679.06
2022-11-16T09:31:43.036Z,95677.63
2022-11-16T09:34:09.984Z,95669.66
2022-11-16T09:36:37.294Z,95661.56
2022-11-16T09:39:28.823Z,95666.94
2022-11-16T09:42:05.878Z,95655.31
2022-11-16T09:44:57.948Z,95656.75
2022-11-16T09:47:43.623Z,95649.91
2022-11-16T09:50:43.070Z,95653.00
2022-11-16T09:53:27.306Z,95647.94
2022-11-16T09:55:58.568Z,95647.81
2022-11-16T10:01:30.434Z,95636.63
2022-11-16T10:04:06.645Z,95650.53
2022-11-16T10:06:44.982Z,95649.22
2022-11-16T10:09:13.493Z,95642.19
2022-11-16T10:12:15.187Z,95644.25
2022-11-16T10:15:07.168Z,95639.44
2022-11-16T10:17:46.348Z,95633.22
2022-11-16T10:23:35.602Z,95614.03
2022-11-16T10:26:13.925Z,95616.50
2022-11-16T10:29:04.824Z,95613.69
2022-11-16T10:31:53.123Z,95611.47
2022-11-16T10:34:22.864Z,95605.69
2022-11-16T10:36:56.512Z,95612.41
2022-11-16T10:39:26.038Z,95604.16
2022-11-16T10:56:30.584Z,95588.16
2022-11-16T10:58:59.922Z,95584.16
2022-11-16T11:01:33.604Z,95584.06
2022-11-16T11:04:17.239Z,95572.53
2022-11-16T11:06:44.998Z,95579.22
2022-11-16T11:09:33.612Z,95580.28
2022-11-16T11:12:03.928Z,95571.56
2022-11-16T11:14:30.989Z,95583.69
2022-11-16T11:17:11.504Z,95585.25
2022-11-16T11:19:38.781Z,95581.09
2022-11-16T11:22:05.863Z,95583.47
2022-11-16T11:24:49.541Z,95584.50
2022-11-16T11:27:23.999Z,95586.50
2022-11-16T11:29:54.234Z,95582.88
2022-11-16T11:32:24.647Z,95601.47
2022-11-16T11:34:54.560Z,95598.31
2022-11-16T11:37:24.600Z,95584.53
2022-11-16T11:40:21.077Z,95594.06
2022-11-16T11:42:57.268Z,95583.56
2022-11-16T11:45:32.644Z,95580.16
2022-11-16T11:48:02.092Z,95593.00
2022-11-16T11:50:53.187Z,95594.78
2022-11-16T11:53:41.434Z,95589.13
2022-11-16T11:56:12.267Z,95596.78
2022-11-16T11:58:41.274Z,95597.50
2022-11-16T12:01:41.742Z,95591.81
2022-11-16T12:04:37.498Z,95589.94
2022-11-16T12:07:15.287Z,95591.59
2022-11-16T12:09:52.217Z,95603.72
2022-11-16T12:12:45.937Z,95610.22
2022-11-16T12:15:55.068Z,95602.91
2022-11-16T12:18:38.897Z,95603.72
2022-11-16T12:21:12.827Z,95606.56
2022-11-16T12:23:55.051Z,95605.28
2022-11-16T12:26:32.951Z,95602.06
2022-11-16T12:29:18.238Z,95602.31
2022-11-16T12:32:07.675Z,95591.69
2022-11-16T12:34:51.367Z,95605.75
2022-11-16T12:37:24.009Z,95598.91
2022-11-16T12:40:09.230Z,95609.63
2022-11-16T12:42:46.034Z,95601.84
2022-11-16T12:45:44.103Z,95608.69
2022-11-16T12:48:39.217Z,95607.94
2022-11-16T12:51:16.500Z,95614.22
2022-11-16T12:54:01.136Z,95599.47
2022-11-16T12:56:44.616Z,95608.31
2022-11-16T12:59:27.549Z,95606.69
2022-11-16T13:02:09.628Z,95614.34
2022-11-16T13:04:41.076Z,95614.56
2022-11-16T13:07:14.742Z,95618.09
2022-11-16T13:09:46.118Z,95613.03
2022-11-16T13:12:17.092Z,95628.56
2022-11-16T13:14:47.108Z,95626.91
2022-11-16T13:17:21.234Z,95633.97
2022-11-16T13:20:05.540Z,95629.03
2022-11-16T13:22:37.929Z,95624.66
2022-11-16T13:25:17.601Z,95622.06
2022-11-16T13:27:52.625Z,95627.13
2022-11-16T13:30:22.886Z,95625.84
2022-11-16T13:33:03.885Z,95628.31
2022-11-16T13:35:31.279Z,95633.50
2022-11-16T13:37:58.246Z,95637.84
2022-11-16T13:40:28.995Z,95633.16
2022-11-16T13:43:05.259Z,95639.03
2022-11-16T13:45:36.524Z,95643.75
2022-11-16T13:48:17.439Z,95643.75
2022-11-16T13:50:49.980Z,95645.31
2022-11-16T13:56:11.686Z,95639.53
2022-11-16T13:58:46.265Z,95635.75
2022-11-16T14:01:14.966Z,95627.16
2022-11-16T14:03:44.600Z,95639.06
2022-11-16T14:06:48.878Z,95632.47
2022-11-16T14:09:41.592Z,95628.34
2022-11-16T14:12:56.606Z,95624.94
2022-11-16T14:15:32.498Z,95630.81
2022-11-16T14:18:31.527Z,95634.72
2022-11-16T14:21:08.026Z,95630.22
2022-11-16T14:24:02.598Z,95632.81
2022-11-16T14:26:42.457Z,95635.06
2022-11-16T14:29:26.908Z,95636.72
2022-11-16T14:31:56.682Z,95628.25
2022-11-16T14:34:28.347Z,95630.00
2022-11-16T14:36:58.564Z,95632.22
2022-11-16T14:39:31.392Z,95634.81
2022-11-16T14:42:03.071Z,95627.03
2022-11-16T14:44:34.429Z,95631.41
2022-11-16T14:47:03.871Z,95628.13
2022-11-16T14:49:35.868Z,95628.69
2022-11-16T14:52:06.580Z,95619.84
2022-11-16T14:54:38.612Z,95616.91
2022-11-16T14:57:07.710Z,95617.16
2022-11-16T14:59:35.033Z,95605.00
2022-11-16T15:02:13.182Z,95597.25
2022-11-16T15:04:40.498Z,95607.84
2022-11-16T15:07:09.249Z,95592.53
2022-11-16T15:09:39.541Z,95581.22
2022-11-16T15:12:15.342Z,95570.88
2022-11-16T15:14:49.449Z,95566.03
2022-11-16T15:17:20.882Z,95553.31
2022-11-16T15:19:55.363Z,95549.78
2022-11-16T15:22:27.379Z,95566.50
2022-11-16T15:24:56.183Z,95581.94
2022-11-16T15:27:37.144Z,95576.16
2022-11-16T15:30:13.624Z,95599.47
2022-11-16T15:32:42.416Z,95607.72
2022-11-16T15:35:18.401Z,95610.38
2022-11-16T15:37:47.067Z,95617.78
2022-11-16T15:40:14.883Z,95605.66
2022-11-16T15:42:44.029Z,95591.91
2022-11-16T15:45:24.365Z,95593.31
2022-11-16T15:47:53.450Z,95574.84
2022-11-16T15:50:22.606Z,95573.91
2022-11-16T15:52:52.691Z,95575.44
2022-11-16T15:55:22.533Z,95579.69
2022-11-16T15:58:01.859Z,95582.28
2022-11-16T16:00:30.178Z,95576.25
2022-11-16T16:03:02.969Z,95579.06
2022-11-16T16:05:37.933Z,95569.69
2022-11-16T16:08:23.421Z,95562.72
2022-11-16T16:10:58.628Z,95574.75
2022-11-16T16:13:29.158Z,95576.47
2022-11-16T16:16:18.051Z,95579.19
2022-11-16T16:18:45.788Z,95583.56
2022-11-16T16:21:13.716Z,95588.38
2022-11-16T16:23:46.711Z,95594.59
2022-11-16T16:26:14.128Z,95592.47
2022-11-16T16:28:41.415Z,95585.63
2022-11-16T16:31:09.218Z,95585.50
2022-11-16T16:33:37.350Z,95584.69
2022-11-16T16:36:05.913Z,95586.59
2022-11-16T16:38:34.554Z,95584.94
2022-11-16T16:41:04.949Z,95588.31
2022-11-16T16:43:33.156Z,95579.84
2022-11-16T16:46:02.520Z,95590.66
2022-11-16T16:48:30.226Z,95586.41
2022-11-16T16:50:57.463Z,95592.56
2022-11-16T16:53:24.911Z,95590.09
2022-11-16T16:55:52.789Z,95594.41
2022-11-16T16:58:21.321Z,95600.44
2022-11-16T17:00:48.481Z,95603.94
2022-11-16T17:03:16.060Z,95593.72
2022-11-16T17:05:43.374Z,95602.28
2022-11-16T17:08:10.895Z,95599.13
2022-11-16T17:10:38.751Z,95598.19
2022-11-16T17:13:06.269Z,95589.78
2022-11-16T17:15:37.849Z,95584.41
2022-11-16T17:18:05.573Z,95588.53
2022-11-16T17:20:33.481Z,95587.09
2022-11-16T17:23:01.206Z,95583.81
2022-11-16T17:25:28.894Z,95591.91
2022-11-16T17:27:59.714Z,95594.84
2022-11-16T17:30:27.098Z,95588.97
2022-11-16T17:32:55.681Z,95581.31
2022-11-16T17:35:23.212Z,95587.28
2022-11-16T17:37:50.353Z,95583.88
2022-11-16T17:40:17.936Z,95584.00
2022-11-16T17:42:45.422Z,95577.97
2022-11-16T17:45:12.516Z,95578.94
2022-11-16T17:47:39.665Z,95576.56
2022-11-16T17:50:09.398Z,95581.97
2022-11-16T17:52:37.560Z,95578.06
2022-11-16T17:55:05.370Z,95579.13
2022-11-16T17:57:32.880Z,95567.81
2022-11-16T18:00:00.489Z,95583.84
2022-11-16T18:02:28.168Z,95583.22
2022-11-16T18:04:55.743Z,95581.50
2022-11-16T18:07:27.136Z,95577.84
2022-11-16T18:09:54.737Z,95575.03
2022-11-16T18:12:22.387Z,95587.84
2022-11-16T18:15:13.520Z,95600.19
2022-11-16T18:17:37.983Z,95601.78
2022-11-16T18:20:06.209Z,95595.31
2022-11-16T18:22:35.899Z,95603.06
2022-11-16T18:25:03.662Z,95605.97
2022-11-16T18:27:30.877Z,95628.13
2022-11-16T18:29:57.881Z,95623.19
2022-11-16T18:32:25.282Z,95623.06
2022-11-16T18:34:52.518Z,95629.91
2022-11-16T18:37:19.643Z,95618.84
2022-11-16T18:39:48.654Z,95626.38
2022-11-16T18:42:16.491Z,95610.38
2022-11-16T18:44:43.765Z,95610.47
2022-11-16T18:47:11.244Z,95609.44
2022-11-16T18:49:38.776Z,95598.88
2022-11-16T18:52:06.855Z,95593.72
2022-11-16T18:54:34.520Z,95586.50
2022-11-16T18:57:03.535Z,95579.28
2022-11-16T18:59:30.683Z,95565.94
2022-11-16T19:01:58.195Z,95560.19
2022-11-16T19:04:25.796Z,95543.97
2022-11-16T19:06:53.391Z,95544.06
2022-11-16T19:09:21.059Z,95542.84
2022-11-16T19:11:48.702Z,95560.34
2022-11-16T19:14:17.760Z,95560.63
2022-11-16T19:16:51.129Z,95561.56
2022-11-16T19:19:21.775Z,95569.31
2022-11-16T19:21:49.621Z,95566.13
2022-11-16T19:24:17.606Z,95567.34
2022-11-16T19:26:44.858Z,95561.81
2022-11-16T19:29:12.370Z,95555.72
2022-11-16T19:31:41.402Z,95555.59
2022-11-16T19:34:12.666Z,95572.63
2022-11-16T19:36:40.287Z,95574.22
2022-11-16T19:39:07.473Z,95584.34
2022-11-16T19:41:35.190Z,95588.25
2022-11-16T19:44:02.972Z,95575.09
2022-11-16T19:46:32.305Z,95576.97
2022-11-16T19:49:01.584Z,95577.59
2022-11-16T19:51:30.705Z,95576.78
2022-11-16T19:54:00.951Z,95586.19
2022-11-16T19:56:29.687Z,95590.72
2022-11-16T19:58:57.330Z,95593.50
2022-11-16T20:01:26.698Z,95599.41
2022-11-16T20:03:55.960Z,95598.88
2022-11-16T20:06:27.359Z,95602.63
2022-11-16T20:08:59.493Z,95596.72
2022-11-16T20:11:28.467Z,95603.44
2022-11-16T20:14:00.845Z,95606.84
2022-11-16T20:16:33.954Z,95620.63
2022-11-16T20:19:05.671Z,95615.66
2022-11-16T20:21:36.736Z,95607.06
2022-11-16T20:24:07.400Z,95602.09
2022-11-16T20:26:37.357Z,95601.28
2022-11-16T20:29:04.858Z,95604.78
2022-11-16T20:31:34.500Z,95606.66
2022-11-16T20:34:04.549Z,95604.28
2022-11-16T20:36:34.139Z,95611.31
2022-11-16T20:39:01.876Z,95607.91
2022-11-16T20:41:30.907Z,95608.00
2022-11-16T20:44:00.344Z,95600.25
2022-11-16T20:46:29.742Z,95594.97
2022-11-16T20:48:57.493Z,95591.28
2022-11-16T20:51:25.420Z,95594.47
2022-11-16T20:53:55.161Z,95584.34
2022-11-16T20:56:22.841Z,95590.34
2022-11-16T20:58:50.992Z,95580.22
2022-11-16T21:01:20.432Z,95575.38
2022-11-16T21:03:47.623Z,95568.34
2022-11-16T21:06:15.454Z,95558.00
2022-11-16T21:08:43.070Z,95553.97
2022-11-16T21:11:12.474Z,95558.44
2022-11-16T21:13:39.997Z,95554.19
2022-11-16T21:16:09.282Z,95558.53
2022-11-16T21:18:36.759Z,95553.38
2022-11-16T21:21:08.465Z,95551.59
2022-11-16T21:23:36.531Z,95556.25
2022-11-16T21:26:06.097Z,95550.25
2022-11-16T21:28:34.988Z,95550.56
2022-11-16T21:31:04.157Z,95556.75
2022-11-16T21:33:32.518Z,95548.72
2022-11-16T21:36:04.053Z,95552.66
2022-11-16T21:38:32.637Z,95554.81
2022-11-16T21:41:00.643Z,95555.75
2022-11-16T21:43:28.109Z,95563.72
2022-11-16T21:46:03.808Z,95569.09
2022-11-16T21:48:32.801Z,95564.94
2022-11-16T21:51:00.784Z,95549.78
2022-11-16T21:53:27.931Z,95570.94
2022-11-16T21:55:55.037Z,95573.81
2022-11-16T21:58:23.128Z,95582.78
2022-11-16T22:00:54.000Z,95575.13
2022-11-16T22:03:24.259Z,95564.00
2022-11-16T22:05:54.687Z,95574.31
2022-11-16T22:08:21.844Z,95569.88
2022-11-16T22:10:50.293Z,95563.91
2022-11-16T22:13:17.439Z,95566.88
2022-11-16T22:15:44.480Z,95578.41
2022-11-16T22:18:11.560Z,95585.84
2022-11-16T22:20:39.882Z,95586.03
2022-11-16T22:23:06.842Z,95591.09
2022-11-16T22:25:33.997Z,95592.00
2022-11-16T22:30:51.610Z,95601.94
2022-11-16T22:33:19.011Z,95594.00
2022-11-16T22:35:48.461Z,95593.59
2022-11-16T22:38:15.366Z,95609.81
2022-11-16T22:40:48.751Z,95605.38
2022-11-16T22:43:15.621Z,95604.47
2022-11-16T22:45:42.522Z,95598.75
2022-11-16T22:48:09.372Z,95597.13
2022-11-16T22:50:36.241Z,95600.72
2022-11-16T22:53:04.722Z,95607.53
2022-11-16T22:55:35.174Z,95595.56
2022-11-16T22:58:02.154Z,95600.63
2022-11-16T23:00:29.043Z,95608.97
2022-11-16T23:02:55.987Z,95609.81
2022-11-16T23:05:23.137Z,95607.25
2022-11-16T23:07:50.154Z,95612.31
2022-11-16T23:10:19.107Z,95620.84
2022-11-16T23:12:46.559Z,95616.50
2022-11-16T23:15:14.529Z,95607.84
2022-11-16T23:17:41.649Z,95605.19
2022-11-16T23:20:14.741Z,95606.75
2022-11-16T23:22:44.733Z,95599.63
2022-11-16T23:25:12.576Z,95602.19
2022-11-16T23:27:45.344Z,95605.19
2022-11-16T23:30:13.583Z,95607.66
2022-11-16T23:32:41.036Z,95594.66
2022-11-16T23:35:09.341Z,95604.78
2022-11-16T23:37:50.233Z,95598.72
2022-11-16T23:40:17.668Z,95587.16
2022-11-16T23:42:46.245Z,95582.81
2022-11-16T23:45:13.591Z,95582.19
2022-11-16T23:47:40.559Z,95577.75
2022-11-16T23:50:08.221Z,95568.34
2022-11-16T23:52:35.251Z,95561.97
2022-11-16T23:55:02.356Z,95575.28
2022-11-16T23:57:29.750Z,95576.50
2022-11-16T23:59:58.878Z,95572.75
